sensor_id;sensor_type;location;lat;lon;timestamp;temperature;humidity
34873;DHT22;21084;51.098;14.506;2023-03-14T00:00:16;9.90;99.90
34873;DHT22;21084;51.098;14.506;2023-03-14T00:02:45;9.90;99.90
34873;DHT22;21084;51.098;14.506;2023-03-14T00:05:14;9.90;99.90
34873;DHT22;21084;51.098;14.506;2023-03-14T00:07:43;10.00;99.90
34873;DHT22;21084;51.098;14.506;2023-03-14T00:10:13;9.90;99.90
34873;DHT22;21084;51.098;14.506;2023-03-14T00:12:44;9.90;99.90
34873;DHT22;21084;51.098;14.506;2023-03-14T00:15:12;9.90;99.90
34873;DHT22;21084;51.098;14.506;2023-03-14T00:17:43;9.80;99.90
34873;DHT22;21084;51.098;14.506;2023-03-14T00:20:13;9.70;99.90
34873;DHT22;21084;51.098;14.506;2023-03-14T00:22:42;9.70;99.90
34873;DHT22;21084;51.098;14.506;2023-03-14T00:25:11;9.60;99.90
34873;DHT22;21084;51.098;14.506;2023-03-14T00:27:44;9.60;99.90
34873;DHT22;21084;51.098;14.506;2023-03-14T00:30:13;9.50;99.90
34873;DHT22;21084;51.098;14.506;2023-03-14T00:32:43;9.50;99.90
34873;DHT22;21084;51.098;14.506;2023-03-14T00:35:12;9.40;99.90
34873;DHT22;21084;51.098;14.506;2023-03-14T00:37:41;9.40;99.90
34873;DHT22;21084;51.098;14.506;2023-03-14T00:40:10;9.40;99.90
34873;DHT22;21084;51.098;14.506;2023-03-14T00:42:39;9.40;99.90
34873;DHT22;21084;51.098;14.506;2023-03-14T00:45:10;9.50;99.90
34873;DHT22;21084;51.098;14.506;2023-03-14T00:47:38;9.60;99.90
34873;DHT22;21084;51.098;14.506;2023-03-14T00:50:08;9.60;99.90
34873;DHT22;21084;51.098;14.506;2023-03-14T00:52:37;9.70;99.90
34873;DHT22;21084;51.098;14.506;2023-03-14T00:55:06;9.80;99.90
34873;DHT22;21084;51.098;14.506;2023-03-14T00:57:35;9.90;99.90
34873;DHT22;21084;51.098;14.506;2023-03-14T01:00:05;9.90;99.90
34873;DHT22;21084;51.098;14.506;2023-03-14T01:02:36;9.90;99.90
34873;DHT22;21084;51.098;14.506;2023-03-14T01:05:06;9.80;99.90
34873;DHT22;21084;51.098;14.506;2023-03-14T01:07:37;9.80;99.90
34873;DHT22;21084;51.098;14.506;2023-03-14T01:10:07;9.80;99.90
34873;DHT22;21084;51.098;14.506;2023-03-14T01:12:36;9.90;99.90
34873;DHT22;21084;51.098;14.506;2023-03-14T01:15:05;10.10;99.90
34873;DHT22;21084;51.098;14.506;2023-03-14T01:17:36;10.20;99.90
34873;DHT22;21084;51.098;14.506;2023-03-14T01:20:09;10.20;99.90
34873;DHT22;21084;51.098;14.506;2023-03-14T01:22:39;10.40;99.90
34873;DHT22;21084;51.098;14.506;2023-03-14T01:25:12;10.40;99.90
34873;DHT22;21084;51.098;14.506;2023-03-14T01:27:42;10.40;99.90
34873;DHT22;21084;51.098;14.506;2023-03-14T01:30:12;10.40;99.90
34873;DHT22;21084;51.098;14.506;2023-03-14T01:32:42;10.40;99.90
34873;DHT22;21084;51.098;14.506;2023-03-14T01:35:11;10.40;99.90
34873;DHT22;21084;51.098;14.506;2023-03-14T01:37:40;10.30;99.90
34873;DHT22;21084;51.098;14.506;2023-03-14T01:40:11;10.30;99.90
34873;DHT22;21084;51.098;14.506;2023-03-14T01:42:45;10.20;99.90
34873;DHT22;21084;51.098;14.506;2023-03-14T01:48:21;10.20;99.90
34873;DHT22;21084;51.098;14.506;2023-03-14T01:50:50;10.30;99.90
34873;DHT22;21084;51.098;14.506;2023-03-14T01:53:19;10.30;99.90
34873;DHT22;21084;51.098;14.506;2023-03-14T01:55:49;10.30;99.90
34873;DHT22;21084;51.098;14.506;2023-03-14T01:58:18;10.30;99.90
34873;DHT22;21084;51.098;14.506;2023-03-14T02:00:48;10.40;99.90
34873;DHT22;21084;51.098;14.506;2023-03-14T02:03:17;10.40;99.90
34873;DHT22;21084;51.098;14.506;2023-03-14T02:05:50;10.40;99.90
34873;DHT22;21084;51.098;14.506;2023-03-14T02:08:22;10.50;99.90
34873;DHT22;21084;51.098;14.506;2023-03-14T02:10:51;10.40;99.90
34873;DHT22;21084;51.098;14.506;2023-03-14T02:13:21;10.40;99.90
34873;DHT22;21084;51.098;14.506;2023-03-14T02:15:50;10.40;99.90
34873;DHT22;21084;51.098;14.506;2023-03-14T02:18:19;10.30;99.90
34873;DHT22;21084;51.098;14.506;2023-03-14T02:20:55;10.30;99.90
34873;DHT22;21084;51.098;14.506;2023-03-14T02:23:34;10.40;99.90
34873;DHT22;21084;51.098;14.506;2023-03-14T02:26:08;10.30;99.90
34873;DHT22;21084;51.098;14.506;2023-03-14T02:28:39;10.40;99.90
34873;DHT22;21084;51.098;14.506;2023-03-14T02:31:09;10.40;99.90
34873;DHT22;21084;51.098;14.506;2023-03-14T02:33:38;10.30;99.90
34873;DHT22;21084;51.098;14.506;2023-03-14T02:36:10;10.20;99.90
34873;DHT22;21084;51.098;14.506;2023-03-14T02:38:44;10.30;99.90
34873;DHT22;21084;51.098;14.506;2023-03-14T02:41:15;10.20;99.90
34873;DHT22;21084;51.098;14.506;2023-03-14T02:43:45;10.10;99.90
34873;DHT22;21084;51.098;14.506;2023-03-14T02:46:17;10.10;99.90
34873;DHT22;21084;51.098;14.506;2023-03-14T02:48:49;10.00;99.90
34873;DHT22;21084;51.098;14.506;2023-03-14T02:51:20;9.90;99.90
34873;DHT22;21084;51.098;14.506;2023-03-14T02:53:48;9.80;99.90
34873;DHT22;21084;51.098;14.506;2023-03-14T02:56:17;9.70;99.90
34873;DHT22;21084;51.098;14.506;2023-03-14T02:58:48;9.70;99.90
34873;DHT22;21084;51.098;14.506;2023-03-14T03:01:16;9.50;99.90
34873;DHT22;21084;51.098;14.506;2023-03-14T03:03:45;9.40;99.90
34873;DHT22;21084;51.098;14.506;2023-03-14T03:06:14;9.20;99.90
34873;DHT22;21084;51.098;14.506;2023-03-14T03:08:43;9.00;99.90
34873;DHT22;21084;51.098;14.506;2023-03-14T03:11:12;9.10;99.90
34873;DHT22;21084;51.098;14.506;2023-03-14T03:13:40;9.20;99.90
34873;DHT22;21084;51.098;14.506;2023-03-14T03:16:11;9.20;99.90
34873;DHT22;21084;51.098;14.506;2023-03-14T03:18:40;9.30;99.90
34873;DHT22;21084;51.098;14.506;2023-03-14T03:21:09;9.20;99.90
34873;DHT22;21084;51.098;14.506;2023-03-14T03:23:38;9.20;99.90
34873;DHT22;21084;51.098;14.506;2023-03-14T03:26:08;9.20;99.90
34873;DHT22;21084;51.098;14.506;2023-03-14T03:28:37;9.30;99.90
34873;DHT22;21084;51.098;14.506;2023-03-14T03:31:07;9.20;99.90
34873;DHT22;21084;51.098;14.506;2023-03-14T03:33:38;9.10;99.90
34873;DHT22;21084;51.098;14.506;2023-03-14T03:36:08;9.10;99.90
34873;DHT22;21084;51.098;14.506;2023-03-14T03:38:37;9.20;99.90
34873;DHT22;21084;51.098;14.506;2023-03-14T03:41:06;9.50;99.90
34873;DHT22;21084;51.098;14.506;2023-03-14T03:43:35;9.60;99.90
34873;DHT22;21084;51.098;14.506;2023-03-14T03:46:04;9.50;99.90
34873;DHT22;21084;51.098;14.506;2023-03-14T03:48:34;9.40;99.90
34873;DHT22;21084;51.098;14.506;2023-03-14T03:51:04;9.30;99.90
34873;DHT22;21084;51.098;14.506;2023-03-14T03:53:33;9.50;99.90
34873;DHT22;21084;51.098;14.506;2023-03-14T03:56:02;9.60;99.90
34873;DHT22;21084;51.098;14.506;2023-03-14T03:58:30;9.60;99.90
34873;DHT22;21084;51.098;14.506;2023-03-14T04:00:59;9.70;99.90
34873;DHT22;21084;51.098;14.506;2023-03-14T04:03:27;9.70;99.90
34873;DHT22;21084;51.098;14.506;2023-03-14T04:06:01;9.60;99.90
34873;DHT22;21084;51.098;14.506;2023-03-14T04:08:31;9.70;99.90
34873;DHT22;21084;51.098;14.506;2023-03-14T04:11:01;9.70;99.90
34873;DHT22;21084;51.098;14.506;2023-03-14T04:13:29;9.60;99.90
34873;DHT22;21084;51.098;14.506;2023-03-14T04:15:58;9.50;99.90
34873;DHT22;21084;51.098;14.506;2023-03-14T04:18:27;9.40;99.90
34873;DHT22;21084;51.098;14.506;2023-03-14T04:20:57;9.30;99.90
34873;DHT22;21084;51.098;14.506;2023-03-14T04:23:26;9.10;99.90
34873;DHT22;21084;51.098;14.506;2023-03-14T04:25:56;9.00;99.90
34873;DHT22;21084;51.098;14.506;2023-03-14T04:28:25;8.90;99.90
34873;DHT22;21084;51.098;14.506;2023-03-14T04:30:54;8.90;99.90
34873;DHT22;21084;51.098;14.506;2023-03-14T04:33:23;8.90;99.90
34873;DHT22;21084;51.098;14.506;2023-03-14T04:35:54;8.80;99.90
34873;DHT22;21084;51.098;14.506;2023-03-14T04:38:22;8.90;99.90
34873;DHT22;21084;51.098;14.506;2023-03-14T04:40:51;9.00;99.90
34873;DHT22;21084;51.098;14.506;2023-03-14T04:43:21;9.10;99.90
34873;DHT22;21084;51.098;14.506;2023-03-14T04:45:49;9.10;99.90
34873;DHT22;21084;51.098;14.506;2023-03-14T04:48:18;9.30;99.90
34873;DHT22;21084;51.098;14.506;2023-03-14T04:50:48;9.30;99.90
34873;DHT22;21084;51.098;14.506;2023-03-14T04:53:17;9.30;99.90
34873;DHT22;21084;51.098;14.506;2023-03-14T04:55:48;9.30;99.90
34873;DHT22;21084;51.098;14.506;2023-03-14T04:58:17;9.40;99.90
34873;DHT22;21084;51.098;14.506;2023-03-14T05:00:47;9.40;99.90
34873;DHT22;21084;51.098;14.506;2023-03-14T05:03:17;9.30;99.90
34873;DHT22;21084;51.098;14.506;2023-03-14T05:05:46;9.20;99.90
34873;DHT22;21084;51.098;14.506;2023-03-14T05:08:15;9.20;99.90
34873;DHT22;21084;51.098;14.506;2023-03-14T05:10:43;9.10;99.90
34873;DHT22;21084;51.098;14.506;2023-03-14T05:13:12;9.00;99.90
34873;DHT22;21084;51.098;14.506;2023-03-14T05:15:41;8.90;99.90
34873;DHT22;21084;51.098;14.506;2023-03-14T05:18:11;8.90;99.90
34873;DHT22;21084;51.098;14.506;2023-03-14T05:20:39;8.90;99.90
34873;DHT22;21084;51.098;14.506;2023-03-14T05:23:07;8.80;99.90
34873;DHT22;21084;51.098;14.506;2023-03-14T05:25:36;8.70;99.90
34873;DHT22;21084;51.098;14.506;2023-03-14T05:28:05;8.70;99.90
34873;DHT22;21084;51.098;14.506;2023-03-14T05:30:33;8.60;99.90
34873;DHT22;21084;51.098;14.506;2023-03-14T05:33:02;8.60;99.90
34873;DHT22;21084;51.098;14.506;2023-03-14T05:35:32;8.60;99.90
34873;DHT22;21084;51.098;14.506;2023-03-14T05:38:01;8.60;99.90
34873;DHT22;21084;51.098;14.506;2023-03-14T05:40:29;8.60;99.90
34873;DHT22;21084;51.098;14.506;2023-03-14T05:42:58;8.60;99.90
34873;DHT22;21084;51.098;14.506;2023-03-14T05:45:26;8.60;99.90
34873;DHT22;21084;51.098;14.506;2023-03-14T05:47:55;8.80;99.90
34873;DHT22;21084;51.098;14.506;2023-03-14T05:50:24;8.80;99.90
34873;DHT22;21084;51.098;14.506;2023-03-14T05:52:54;8.90;99.90
34873;DHT22;21084;51.098;14.506;2023-03-14T05:55:23;9.00;99.90
34873;DHT22;21084;51.098;14.506;2023-03-14T05:57:52;9.20;99.90
34873;DHT22;21084;51.098;14.506;2023-03-14T06:00:23;9.40;99.90
34873;DHT22;21084;51.098;14.506;2023-03-14T06:02:51;9.60;99.90
34873;DHT22;21084;51.098;14.506;2023-03-14T06:05:20;9.60;99.90
34873;DHT22;21084;51.098;14.506;2023-03-14T06:07:49;9.70;99.90
34873;DHT22;21084;51.098;14.506;2023-03-14T06:10:19;9.70;99.90
34873;DHT22;21084;51.098;14.506;2023-03-14T06:12:48;9.70;99.90
34873;DHT22;21084;51.098;14.506;2023-03-14T06:15:17;9.70;99.90
34873;DHT22;21084;51.098;14.506;2023-03-14T06:17:46;9.80;99.90
34873;DHT22;21084;51.098;14.506;2023-03-14T06:20:14;9.90;99.90
34873;DHT22;21084;51.098;14.506;2023-03-14T06:22:43;10.00;99.90
34873;DHT22;21084;51.098;14.506;2023-03-14T06:25:12;10.10;99.90
34873;DHT22;21084;51.098;14.506;2023-03-14T06:27:41;10.20;99.90
34873;DHT22;21084;51.098;14.506;2023-03-14T06:30:10;10.30;99.90
34873;DHT22;21084;51.098;14.506;2023-03-14T06:32:38;10.30;99.90
34873;DHT22;21084;51.098;14.506;2023-03-14T06:35:08;10.30;99.90
34873;DHT22;21084;51.098;14.506;2023-03-14T06:37:37;10.40;99.90
34873;DHT22;21084;51.098;14.506;2023-03-14T06:40:06;10.40;99.90
34873;DHT22;21084;51.098;14.506;2023-03-14T06:42:35;10.50;99.90
34873;DHT22;21084;51.098;14.506;2023-03-14T06:45:06;10.60;99.90
34873;DHT22;21084;51.098;14.506;2023-03-14T06:47:35;10.70;99.90
34873;DHT22;21084;51.098;14.506;2023-03-14T06:50:06;10.70;99.90
34873;DHT22;21084;51.098;14.506;2023-03-14T06:52:34;10.70;99.90
34873;DHT22;21084;51.098;14.506;2023-03-14T06:55:04;10.80;99.90
34873;DHT22;21084;51.098;14.506;2023-03-14T06:57:32;10.90;99.90
34873;DHT22;21084;51.098;14.506;2023-03-14T07:00:01;10.70;99.90
34873;DHT22;21084;51.098;14.506;2023-03-14T07:02:31;10.70;99.90
34873;DHT22;21084;51.098;14.506;2023-03-14T07:05:09;10.60;99.90
34873;DHT22;21084;51.098;14.506;2023-03-14T07:07:38;10.60;99.90
34873;DHT22;21084;51.098;14.506;2023-03-14T07:10:08;10.60;99.90
34873;DHT22;21084;51.098;14.506;2023-03-14T07:12:37;10.50;99.90
34873;DHT22;21084;51.098;14.506;2023-03-14T07:15:06;10.50;99.90
34873;DHT22;21084;51.098;14.506;2023-03-14T07:17:48;10.50;99.90
34873;DHT22;21084;51.098;14.506;2023-03-14T07:20:17;10.70;99.90
34873;DHT22;21084;51.098;14.506;2023-03-14T07:22:47;10.80;99.90
34873;DHT22;21084;51.098;14.506;2023-03-14T07:25:16;10.90;99.90
34873;DHT22;21084;51.098;14.506;2023-03-14T07:27:46;11.00;99.90
34873;DHT22;21084;51.098;14.506;2023-03-14T07:30:15;11.00;99.90
34873;DHT22;21084;51.098;14.506;2023-03-14T07:32:43;11.00;99.90
34873;DHT22;21084;51.098;14.506;2023-03-14T07:35:13;11.20;99.90
34873;DHT22;21084;51.098;14.506;2023-03-14T07:37:42;11.20;99.90
34873;DHT22;21084;51.098;14.506;2023-03-14T07:40:11;11.20;99.90
34873;DHT22;21084;51.098;14.506;2023-03-14T07:42:42;11.20;99.90
34873;DHT22;21084;51.098;14.506;2023-03-14T07:45:11;11.40;99.90
34873;DHT22;21084;51.098;14.506;2023-03-14T07:47:40;11.60;99.90
34873;DHT22;21084;51.098;14.506;2023-03-14T07:50:09;11.60;99.90
34873;DHT22;21084;51.098;14.506;2023-03-14T07:52:39;11.60;99.90
34873;DHT22;21084;51.098;14.506;2023-03-14T07:55:08;11.70;99.90
34873;DHT22;21084;51.098;14.506;2023-03-14T07:57:37;11.80;99.90
34873;DHT22;21084;51.098;14.506;2023-03-14T08:00:07;11.90;99.90
34873;DHT22;21084;51.098;14.506;2023-03-14T08:02:35;12.10;99.90
34873;DHT22;21084;51.098;14.506;2023-03-14T08:05:05;12.20;99.90
34873;DHT22;21084;51.098;14.506;2023-03-14T08:07:33;12.40;99.90
34873;DHT22;21084;51.098;14.506;2023-03-14T08:10:04;11.90;99.90
34873;DHT22;21084;51.098;14.506;2023-03-14T08:12:32;11.90;99.90
34873;DHT22;21084;51.098;14.506;2023-03-14T08:15:01;11.90;99.90
34873;DHT22;21084;51.098;14.506;2023-03-14T08:17:29;11.90;99.90
34873;DHT22;21084;51.098;14.506;2023-03-14T08:19:58;11.70;99.90
34873;DHT22;21084;51.098;14.506;2023-03-14T08:22:26;11.50;99.90
34873;DHT22;21084;51.098;14.506;2023-03-14T08:24:55;11.60;99.90
34873;DHT22;21084;51.098;14.506;2023-03-14T08:27:25;11.60;99.90
34873;DHT22;21084;51.098;14.506;2023-03-14T08:29:53;11.50;99.90
34873;DHT22;21084;51.098;14.506;2023-03-14T08:32:21;11.60;99.90
34873;DHT22;21084;51.098;14.506;2023-03-14T08:34:50;11.40;99.90
34873;DHT22;21084;51.098;14.506;2023-03-14T08:37:19;11.40;99.90
34873;DHT22;21084;51.098;14.506;2023-03-14T08:39:53;11.40;99.90
34873;DHT22;21084;51.098;14.506;2023-03-14T08:42:22;11.40;99.90
34873;DHT22;21084;51.098;14.506;2023-03-14T08:44:52;11.40;99.90
34873;DHT22;21084;51.098;14.506;2023-03-14T08:47:20;11.40;99.90
34873;DHT22;21084;51.098;14.506;2023-03-14T08:49:49;11.40;99.90
34873;DHT22;21084;51.098;14.506;2023-03-14T08:52:18;11.60;99.90
34873;DHT22;21084;51.098;14.506;2023-03-14T08:54:46;11.60;99.90
34873;DHT22;21084;51.098;14.506;2023-03-14T08:57:15;11.80;99.90
34873;DHT22;21084;51.098;14.506;2023-03-14T08:59:43;11.90;99.90
34873;DHT22;21084;51.098;14.506;2023-03-14T09:02:13;11.80;99.90
34873;DHT22;21084;51.098;14.506;2023-03-14T09:04:42;12.00;99.90
34873;DHT22;21084;51.098;14.506;2023-03-14T09:07:10;11.80;99.90
34873;DHT22;21084;51.098;14.506;2023-03-14T09:09:38;11.80;99.90
34873;DHT22;21084;51.098;14.506;2023-03-14T09:12:07;11.90;99.90
34873;DHT22;21084;51.098;14.506;2023-03-14T09:14:35;11.90;99.90
34873;DHT22;21084;51.098;14.506;2023-03-14T09:17:04;11.70;99.90
34873;DHT22;21084;51.098;14.506;2023-03-14T09:19:34;11.60;99.90
34873;DHT22;21084;51.098;14.506;2023-03-14T09:22:03;11.60;99.90
34873;DHT22;21084;51.098;14.506;2023-03-14T09:24:32;11.80;99.90
34873;DHT22;21084;51.098;14.506;2023-03-14T09:27:00;12.00;99.90
34873;DHT22;21084;51.098;14.506;2023-03-14T09:29:29;12.20;99.90
34873;DHT22;21084;51.098;14.506;2023-03-14T09:31:58;12.20;99.90
34873;DHT22;21084;51.098;14.506;2023-03-14T09:34:27;12.00;99.90
34873;DHT22;21084;51.098;14.506;2023-03-14T09:36:57;12.00;99.90
34873;DHT22;21084;51.098;14.506;2023-03-14T09:39:25;12.30;99.90
34873;DHT22;21084;51.098;14.506;2023-03-14T09:41:55;12.30;99.90
34873;DHT22;21084;51.098;14.506;2023-03-14T09:44:28;12.30;99.90
34873;DHT22;21084;51.098;14.506;2023-03-14T09:47:00;12.20;99.90
34873;DHT22;21084;51.098;14.506;2023-03-14T09:49:31;12.60;99.90
34873;DHT22;21084;51.098;14.506;2023-03-14T09:52:06;12.70;99.90
34873;DHT22;21084;51.098;14.506;2023-03-14T09:54:42;12.70;99.90
34873;DHT22;21084;51.098;14.506;2023-03-14T09:57:13;12.80;99.90
34873;DHT22;21084;51.098;14.506;2023-03-14T09:59:45;13.10;99.90
34873;DHT22;21084;51.098;14.506;2023-03-14T10:02:17;12.90;99.90
34873;DHT22;21084;51.098;14.506;2023-03-14T10:04:47;12.60;99.90
34873;DHT22;21084;51.098;14.506;2023-03-14T10:07:19;12.70;99.90
34873;DHT22;21084;51.098;14.506;2023-03-14T10:09:50;12.40;99.90
34873;DHT22;21084;51.098;14.506;2023-03-14T10:12:19;12.50;99.90
34873;DHT22;21084;51.098;14.506;2023-03-14T10:14:50;12.80;99.90
34873;DHT22;21084;51.098;14.506;2023-03-14T10:17:20;12.90;99.90
34873;DHT22;21084;51.098;14.506;2023-03-14T10:19:54;12.70;99.90
34873;DHT22;21084;51.098;14.506;2023-03-14T10:22:26;12.50;99.90
34873;DHT22;21084;51.098;14.506;2023-03-14T10:24:56;12.40;99.90
34873;DHT22;21084;51.098;14.506;2023-03-14T10:27:31;12.60;99.90
34873;DHT22;21084;51.098;14.506;2023-03-14T10:30:01;12.60;99.90
34873;DHT22;21084;51.098;14.506;2023-03-14T10:32:33;12.60;99.90
34873;DHT22;21084;51.098;14.506;2023-03-14T10:35:11;12.90;99.90
34873;DHT22;21084;51.098;14.506;2023-03-14T10:37:53;12.50;99.90
34873;DHT22;21084;51.098;14.506;2023-03-14T10:40:26;12.60;99.90
34873;DHT22;21084;51.098;14.506;2023-03-14T10:42:58;12.60;99.90
34873;DHT22;21084;51.098;14.506;2023-03-14T10:45:35;12.70;99.90
34873;DHT22;21084;51.098;14.506;2023-03-14T10:48:29;12.40;99.90
34873;DHT22;21084;51.098;14.506;2023-03-14T10:51:04;12.40;99.90
34873;DHT22;21084;51.098;14.506;2023-03-14T10:53:39;12.30;99.90
34873;DHT22;21084;51.098;14.506;2023-03-14T10:56:12;12.20;99.90
34873;DHT22;21084;51.098;14.506;2023-03-14T10:58:42;12.20;99.90
34873;DHT22;21084;51.098;14.506;2023-03-14T11:01:27;12.20;99.90
34873;DHT22;21084;51.098;14.506;2023-03-14T11:04:03;12.30;99.90
34873;DHT22;21084;51.098;14.506;2023-03-14T11:06:38;12.40;99.90
34873;DHT22;21084;51.098;14.506;2023-03-14T11:09:15;12.40;99.90
34873;DHT22;21084;51.098;14.506;2023-03-14T11:11:47;12.00;99.90
34873;DHT22;21084;51.098;14.506;2023-03-14T11:14:25;12.00;99.90
34873;DHT22;21084;51.098;14.506;2023-03-14T11:17:00;12.00;99.90
34873;DHT22;21084;51.098;14.506;2023-03-14T11:19:42;11.90;99.90
34873;DHT22;21084;51.098;14.506;2023-03-14T11:22:21;11.90;99.90
34873;DHT22;21084;51.098;14.506;2023-03-14T11:25:06;12.00;99.90
34873;DHT22;21084;51.098;14.506;2023-03-14T11:27:41;12.10;99.90
34873;DHT22;21084;51.098;14.506;2023-03-14T11:30:19;12.20;99.90
34873;DHT22;21084;51.098;14.506;2023-03-14T11:32:59;12.20;99.90
34873;DHT22;21084;51.098;14.506;2023-03-14T11:35:32;12.20;99.90
34873;DHT22;21084;51.098;14.506;2023-03-14T11:38:13;12.20;99.90
34873;DHT22;21084;51.098;14.506;2023-03-14T11:40:43;12.00;99.90
34873;DHT22;21084;51.098;14.506;2023-03-14T11:43:16;11.90;99.90
34873;DHT22;21084;51.098;14.506;2023-03-14T11:45:48;12.10;99.90
34873;DHT22;21084;51.098;14.506;2023-03-14T11:48:25;12.50;99.90
34873;DHT22;21084;51.098;14.506;2023-03-14T11:50:58;12.80;99.90
34873;DHT22;21084;51.098;14.506;2023-03-14T11:53:37;12.60;99.90
34873;DHT22;21084;51.098;14.506;2023-03-14T11:56:14;12.30;99.90
34873;DHT22;21084;51.098;14.506;2023-03-14T11:58:54;12.20;99.90
34873;DHT22;21084;51.098;14.506;2023-03-14T12:01:30;12.20;99.90
34873;DHT22;21084;51.098;14.506;2023-03-14T12:04:09;12.10;99.90
34873;DHT22;21084;51.098;14.506;2023-03-14T12:06:45;12.00;99.90
34873;DHT22;21084;51.098;14.506;2023-03-14T12:09:16;12.00;99.90
34873;DHT22;21084;51.098;14.506;2023-03-14T12:11:48;12.00;99.90
34873;DHT22;21084;51.098;14.506;2023-03-14T12:14:22;12.00;99.90
34873;DHT22;21084;51.098;14.506;2023-03-14T12:16:54;12.10;99.90
34873;DHT22;21084;51.098;14.506;2023-03-14T12:19:37;12.20;99.90
34873;DHT22;21084;51.098;14.506;2023-03-14T12:22:26;12.00;99.90
34873;DHT22;21084;51.098;14.506;2023-03-14T12:25:00;12.00;99.90
34873;DHT22;21084;51.098;14.506;2023-03-14T12:28:02;12.20;99.90
34873;DHT22;21084;51.098;14.506;2023-03-14T12:30:33;12.40;99.90
34873;DHT22;21084;51.098;14.506;2023-03-14T12:33:27;12.60;99.90
34873;DHT22;21084;51.098;14.506;2023-03-14T12:39:10;12.30;99.90
34873;DHT22;21084;51.098;14.506;2023-03-14T12:41:45;12.50;99.90
34873;DHT22;21084;51.098;14.506;2023-03-14T12:44:40;12.40;99.90
34873;DHT22;21084;51.098;14.506;2023-03-14T12:47:48;12.40;99.90
34873;DHT22;21084;51.098;14.506;2023-03-14T12:53:31;12.80;99.90
34873;DHT22;21084;51.098;14.506;2023-03-14T12:56:09;12.50;99.90
34873;DHT22;21084;51.098;14.506;2023-03-14T12:58:44;12.50;99.90
34873;DHT22;21084;51.098;14.506;2023-03-14T13:01:18;12.40;99.90
34873;DHT22;21084;51.098;14.506;2023-03-14T13:03:51;12.30;99.90
34873;DHT22;21084;51.098;14.506;2023-03-14T13:06:49;12.70;99.90
34873;DHT22;21084;51.098;14.506;2023-03-14T13:09:54;13.00;99.90
34873;DHT22;21084;51.098;14.506;2023-03-14T13:12:27;12.90;99.90
34873;DHT22;21084;51.098;14.506;2023-03-14T13:14:59;12.80;99.90
34873;DHT22;21084;51.098;14.506;2023-03-14T13:17:33;12.80;99.90
34873;DHT22;21084;51.098;14.506;2023-03-14T13:20:11;13.00;99.90
34873;DHT22;21084;51.098;14.506;2023-03-14T13:22:46;13.00;99.90
34873;DHT22;21084;51.098;14.506;2023-03-14T13:25:15;13.40;99.90
34873;DHT22;21084;51.098;14.506;2023-03-14T13:27:45;14.10;99.90
34873;DHT22;21084;51.098;14.506;2023-03-14T13:30:22;14.00;99.90
34873;DHT22;21084;51.098;14.506;2023-03-14T13:32:53;14.10;99.90
34873;DHT22;21084;51.098;14.506;2023-03-14T13:35:25;13.80;99.90
34873;DHT22;21084;51.098;14.506;2023-03-14T13:37:59;13.40;99.90
34873;DHT22;21084;51.098;14.506;2023-03-14T13:40:45;13.40;99.90
34873;DHT22;21084;51.098;14.506;2023-03-14T13:43:17;14.00;99.90
34873;DHT22;21084;51.098;14.506;2023-03-14T13:45:50;13.50;99.90
34873;DHT22;21084;51.098;14.506;2023-03-14T13:48:21;13.10;99.90
34873;DHT22;21084;51.098;14.506;2023-03-14T13:50:53;13.30;99.90
34873;DHT22;21084;51.098;14.506;2023-03-14T13:53:24;13.30;99.90
34873;DHT22;21084;51.098;14.506;2023-03-14T13:55:54;13.70;99.90
34873;DHT22;21084;51.098;14.506;2023-03-14T13:58:25;14.30;99.90
34873;DHT22;21084;51.098;14.506;2023-03-14T14:00:57;14.30;99.90
34873;DHT22;21084;51.098;14.506;2023-03-14T14:03:31;14.20;99.90
34873;DHT22;21084;51.098;14.506;2023-03-14T14:06:00;13.80;99.90
34873;DHT22;21084;51.098;14.506;2023-03-14T14:08:29;14.70;99.90
34873;DHT22;21084;51.098;14.506;2023-03-14T14:11:00;15.80;99.90
34873;DHT22;21084;51.098;14.506;2023-03-14T14:13:33;15.30;99.90
34873;DHT22;21084;51.098;14.506;2023-03-14T14:16:03;16.00;99.90
34873;DHT22;21084;51.098;14.506;2023-03-14T14:18:33;15.90;99.90
34873;DHT22;21084;51.098;14.506;2023-03-14T14:21:03;16.40;99.90
34873;DHT22;21084;51.098;14.506;2023-03-14T14:23:32;15.70;99.90
34873;DHT22;21084;51.098;14.506;2023-03-14T14:26:01;14.90;99.90
34873;DHT22;21084;51.098;14.506;2023-03-14T14:28:31;14.90;99.90
34873;DHT22;21084;51.098;14.506;2023-03-14T14:31:18;15.00;99.90
34873;DHT22;21084;51.098;14.506;2023-03-14T14:33:56;15.10;99.90
34873;DHT22;21084;51.098;14.506;2023-03-14T14:36:27;15.90;99.90
34873;DHT22;21084;51.098;14.506;2023-03-14T14:39:03;15.70;99.90
34873;DHT22;21084;51.098;14.506;2023-03-14T14:41:34;15.50;99.90
34873;DHT22;21084;51.098;14.506;2023-03-14T14:44:04;15.20;99.90
34873;DHT22;21084;51.098;14.506;2023-03-14T14:46:35;14.90;99.90
34873;DHT22;21084;51.098;14.506;2023-03-14T14:49:30;15.40;99.90
34873;DHT22;21084;51.098;14.506;2023-03-14T14:52:02;14.50;99.90
34873;DHT22;21084;51.098;14.506;2023-03-14T14:54:37;14.30;99.90
34873;DHT22;21084;51.098;14.506;2023-03-14T14:57:18;13.90;99.90
34873;DHT22;21084;51.098;14.506;2023-03-14T14:59:48;13.60;99.90
34873;DHT22;21084;51.098;14.506;2023-03-14T15:02:31;13.90;99.90
34873;DHT22;21084;51.098;14.506;2023-03-14T15:05:02;14.10;99.90
34873;DHT22;21084;51.098;14.506;2023-03-14T15:07:30;13.20;99.90
34873;DHT22;21084;51.098;14.506;2023-03-14T15:09:59;13.00;99.90
34873;DHT22;21084;51.098;14.506;2023-03-14T15:12:27;12.80;99.90
34873;DHT22;21084;51.098;14.506;2023-03-14T15:14:56;12.90;99.90
34873;DHT22;21084;51.098;14.506;2023-03-14T15:17:25;12.80;99.90
34873;DHT22;21084;51.098;14.506;2023-03-14T15:19:53;13.10;99.90
34873;DHT22;21084;51.098;14.506;2023-03-14T15:22:24;13.20;99.90
34873;DHT22;21084;51.098;14.506;2023-03-14T15:24:52;13.20;99.90
34873;DHT22;21084;51.098;14.506;2023-03-14T15:27:21;13.40;99.90
34873;DHT22;21084;51.098;14.506;2023-03-14T15:29:49;13.90;99.90
34873;DHT22;21084;51.098;14.506;2023-03-14T15:32:18;14.30;99.90
34873;DHT22;21084;51.098;14.506;2023-03-14T15:34:47;14.80;99.90
34873;DHT22;21084;51.098;14.506;2023-03-14T15:37:16;14.90;99.90
34873;DHT22;21084;51.098;14.506;2023-03-14T15:39:46;14.40;99.90
34873;DHT22;21084;51.098;14.506;2023-03-14T15:42:14;13.50;99.90
34873;DHT22;21084;51.098;14.506;2023-03-14T15:44:43;12.90;99.90
34873;DHT22;21084;51.098;14.506;2023-03-14T15:47:11;12.70;99.90
34873;DHT22;21084;51.098;14.506;2023-03-14T15:49:40;12.40;99.90
34873;DHT22;21084;51.098;14.506;2023-03-14T15:52:08;12.20;99.90
34873;DHT22;21084;51.098;14.506;2023-03-14T15:54:37;12.20;99.90